sensor_id;sensor_type;location;lat;lon;timestamp;P1;durP1;ratioP1;P2;durP2;ratioP2
67120;SDS011;54042;47.420;18.888;2022-07-04T00:00:13;2.40;;;1.85;;
67120;SDS011;54042;47.420;18.888;2022-07-04T00:02:41;5.57;;;1.85;;
67120;SDS011;54042;47.420;18.888;2022-07-04T00:05:09;2.83;;;1.88;;
67120;SDS011;54042;47.420;18.888;2022-07-04T00:07:38;2.28;;;1.88;;
67120;SDS011;54042;47.420;18.888;2022-07-04T00:10:17;4.85;;;2.20;;
67120;SDS011;54042;47.420;18.888;2022-07-04T00:12:46;3.85;;;2.17;;
67120;SDS011;54042;47.420;18.888;2022-07-04T00:15:14;2.75;;;2.13;;
67120;SDS011;54042;47.420;18.888;2022-07-04T00:17:41;2.85;;;2.30;;
67120;SDS011;54042;47.420;18.888;2022-07-04T00:20:09;2.38;;;2.15;;
67120;SDS011;54042;47.420;18.888;2022-07-04T00:22:37;5.10;;;2.17;;
67120;SDS011;54042;47.420;18.888;2022-07-04T00:25:05;5.70;;;2.30;;
67120;SDS011;54042;47.420;18.888;2022-07-04T00:27:32;5.10;;;2.50;;
67120;SDS011;54042;47.420;18.888;2022-07-04T00:29:59;4.20;;;2.20;;
67120;SDS011;54042;47.420;18.888;2022-07-04T00:32:26;3.25;;;2.10;;
67120;SDS011;54042;47.420;18.888;2022-07-04T00:34:53;4.85;;;2.20;;
67120;SDS011;54042;47.420;18.888;2022-07-04T00:37:19;9.15;;;2.42;;
67120;SDS011;54042;47.420;18.888;2022-07-04T00:39:46;2.80;;;2.25;;
67120;SDS011;54042;47.420;18.888;2022-07-04T00:42:13;3.28;;;2.20;;
67120;SDS011;54042;47.420;18.888;2022-07-04T00:44:40;2.83;;;2.20;;
67120;SDS011;54042;47.420;18.888;2022-07-04T00:47:09;6.35;;;2.72;;
67120;SDS011;54042;47.420;18.888;2022-07-04T00:49:36;3.40;;;2.17;;
67120;SDS011;54042;47.420;18.888;2022-07-04T00:52:03;3.53;;;2.40;;
67120;SDS011;54042;47.420;18.888;2022-07-04T00:54:31;2.55;;;2.15;;
67120;SDS011;54042;47.420;18.888;2022-07-04T00:57:00;2.70;;;2.25;;
67120;SDS011;54042;47.420;18.888;2022-07-04T00:59:27;3.00;;;2.30;;
67120;SDS011;54042;47.420;18.888;2022-07-04T01:01:54;3.72;;;2.67;;
67120;SDS011;54042;47.420;18.888;2022-07-04T01:04:21;4.80;;;2.47;;
67120;SDS011;54042;47.420;18.888;2022-07-04T01:06:49;3.40;;;2.42;;
67120;SDS011;54042;47.420;18.888;2022-07-04T01:09:16;5.68;;;2.83;;
67120;SDS011;54042;47.420;18.888;2022-07-04T01:11:43;6.97;;;2.70;;
67120;SDS011;54042;47.420;18.888;2022-07-04T01:14:10;4.60;;;2.53;;
67120;SDS011;54042;47.420;18.888;2022-07-04T01:16:37;3.75;;;2.70;;
67120;SDS011;54042;47.420;18.888;2022-07-04T01:19:04;3.13;;;2.83;;
67120;SDS011;54042;47.420;18.888;2022-07-04T01:21:31;4.30;;;2.35;;
67120;SDS011;54042;47.420;18.888;2022-07-04T01:23:59;3.13;;;2.65;;
67120;SDS011;54042;47.420;18.888;2022-07-04T01:26:27;3.58;;;2.72;;
67120;SDS011;54042;47.420;18.888;2022-07-04T01:28:54;4.50;;;2.72;;
67120;SDS011;54042;47.420;18.888;2022-07-04T01:31:20;7.53;;;2.58;;
67120;SDS011;54042;47.420;18.888;2022-07-04T01:33:47;6.68;;;2.88;;
67120;SDS011;54042;47.420;18.888;2022-07-04T01:36:14;3.58;;;2.85;;
67120;SDS011;54042;47.420;18.888;2022-07-04T01:38:41;4.20;;;2.75;;
67120;SDS011;54042;47.420;18.888;2022-07-04T01:41:08;3.83;;;2.70;;
67120;SDS011;54042;47.420;18.888;2022-07-04T01:43:34;2.70;;;2.38;;
67120;SDS011;54042;47.420;18.888;2022-07-04T01:46:01;6.22;;;2.30;;
67120;SDS011;54042;47.420;18.888;2022-07-04T01:48:29;3.30;;;2.55;;
67120;SDS011;54042;47.420;18.888;2022-07-04T01:50:55;4.40;;;2.45;;
67120;SDS011;54042;47.420;18.888;2022-07-04T01:53:22;6.07;;;2.80;;
67120;SDS011;54042;47.420;18.888;2022-07-04T01:55:49;3.97;;;2.60;;
67120;SDS011;54042;47.420;18.888;2022-07-04T01:58:16;5.50;;;2.70;;
67120;SDS011;54042;47.420;18.888;2022-07-04T02:00:43;4.38;;;2.72;;
67120;SDS011;54042;47.420;18.888;2022-07-04T02:03:28;2.85;;;2.60;;
67120;SDS011;54042;47.420;18.888;2022-07-04T02:05:55;2.70;;;2.42;;
67120;SDS011;54042;47.420;18.888;2022-07-04T02:08:22;5.88;;;2.90;;
67120;SDS011;54042;47.420;18.888;2022-07-04T02:10:48;10.48;;;2.80;;
67120;SDS011;54042;47.420;18.888;2022-07-04T02:13:15;4.72;;;2.60;;
67120;SDS011;54042;47.420;18.888;2022-07-04T02:15:42;6.93;;;2.70;;
67120;SDS011;54042;47.420;18.888;2022-07-04T02:18:09;3.25;;;2.72;;
67120;SDS011;54042;47.420;18.888;2022-07-04T02:20:37;5.18;;;2.60;;
67120;SDS011;54042;47.420;18.888;2022-07-04T02:23:04;4.55;;;2.75;;
67120;SDS011;54042;47.420;18.888;2022-07-04T02:25:32;6.63;;;2.78;;
67120;SDS011;54042;47.420;18.888;2022-07-04T02:27:59;4.57;;;2.83;;
67120;SDS011;54042;47.420;18.888;2022-07-04T02:30:26;3.03;;;2.50;;
67120;SDS011;54042;47.420;18.888;2022-07-04T02:32:53;3.22;;;2.85;;
67120;SDS011;54042;47.420;18.888;2022-07-04T02:35:19;6.75;;;2.90;;
67120;SDS011;54042;47.420;18.888;2022-07-04T02:37:46;6.90;;;3.15;;
67120;SDS011;54042;47.420;18.888;2022-07-04T02:40:13;3.78;;;2.78;;
67120;SDS011;54042;47.420;18.888;2022-07-04T02:42:40;6.43;;;2.67;;
67120;SDS011;54042;47.420;18.888;2022-07-04T02:45:07;5.43;;;2.67;;
67120;SDS011;54042;47.420;18.888;2022-07-04T02:47:34;3.03;;;2.55;;
67120;SDS011;54042;47.420;18.888;2022-07-04T02:50:01;3.83;;;2.80;;
67120;SDS011;54042;47.420;18.888;2022-07-04T02:52:29;3.83;;;2.67;;
67120;SDS011;54042;47.420;18.888;2022-07-04T02:54:56;6.45;;;2.90;;
67120;SDS011;54042;47.420;18.888;2022-07-04T02:57:23;6.20;;;2.80;;
67120;SDS011;54042;47.420;18.888;2022-07-04T02:59:50;3.65;;;3.05;;
67120;SDS011;54042;47.420;18.888;2022-07-04T03:02:17;4.07;;;3.00;;
67120;SDS011;54042;47.420;18.888;2022-07-04T03:04:44;3.85;;;2.70;;
67120;SDS011;54042;47.420;18.888;2022-07-04T03:07:11;4.43;;;2.65;;
67120;SDS011;54042;47.420;18.888;2022-07-04T03:09:38;3.00;;;2.70;;
67120;SDS011;54042;47.420;18.888;2022-07-04T03:12:05;3.13;;;2.55;;
67120;SDS011;54042;47.420;18.888;2022-07-04T03:14:32;3.15;;;2.47;;
67120;SDS011;54042;47.420;18.888;2022-07-04T03:16:59;3.60;;;2.33;;
67120;SDS011;54042;47.420;18.888;2022-07-04T03:19:26;7.25;;;2.42;;
67120;SDS011;54042;47.420;18.888;2022-07-04T03:21:53;3.35;;;2.47;;
67120;SDS011;54042;47.420;18.888;2022-07-04T03:24:20;4.95;;;2.72;;
67120;SDS011;54042;47.420;18.888;2022-07-04T03:26:47;2.90;;;2.60;;
67120;SDS011;54042;47.420;18.888;2022-07-04T03:29:13;3.30;;;2.40;;
67120;SDS011;54042;47.420;18.888;2022-07-04T03:31:40;5.07;;;2.60;;
67120;SDS011;54042;47.420;18.888;2022-07-04T03:34:07;3.67;;;2.42;;
67120;SDS011;54042;47.420;18.888;2022-07-04T03:36:33;5.90;;;2.80;;
67120;SDS011;54042;47.420;18.888;2022-07-04T03:39:00;7.80;;;2.75;;
67120;SDS011;54042;47.420;18.888;2022-07-04T03:41:28;3.58;;;2.70;;
67120;SDS011;54042;47.420;18.888;2022-07-04T03:43:55;3.65;;;2.50;;
67120;SDS011;54042;47.420;18.888;2022-07-04T03:46:22;4.72;;;3.10;;
67120;SDS011;54042;47.420;18.888;2022-07-04T03:48:49;5.25;;;2.50;;
67120;SDS011;54042;47.420;18.888;2022-07-04T03:51:16;3.85;;;2.60;;
67120;SDS011;54042;47.420;18.888;2022-07-04T03:53:42;4.93;;;2.65;;
67120;SDS011;54042;47.420;18.888;2022-07-04T03:56:09;3.63;;;2.90;;
67120;SDS011;54042;47.420;18.888;2022-07-04T03:58:36;5.60;;;3.10;;
67120;SDS011;54042;47.420;18.888;2022-07-04T04:01:03;5.32;;;2.70;;
67120;SDS011;54042;47.420;18.888;2022-07-04T04:03:30;4.50;;;2.72;;
67120;SDS011;54042;47.420;18.888;2022-07-04T04:06:16;5.65;;;3.00;;
67120;SDS011;54042;47.420;18.888;2022-07-04T04:08:42;4.97;;;2.92;;
67120;SDS011;54042;47.420;18.888;2022-07-04T04:11:09;6.32;;;2.83;;
67120;SDS011;54042;47.420;18.888;2022-07-04T04:13:36;6.57;;;2.90;;
67120;SDS011;54042;47.420;18.888;2022-07-04T04:16:03;5.57;;;3.13;;
67120;SDS011;54042;47.420;18.888;2022-07-04T04:18:30;7.38;;;2.88;;
67120;SDS011;54042;47.420;18.888;2022-07-04T04:20:57;3.45;;;2.90;;
67120;SDS011;54042;47.420;18.888;2022-07-04T04:23:24;5.07;;;2.58;;
67120;SDS011;54042;47.420;18.888;2022-07-04T04:25:51;6.82;;;2.95;;
67120;SDS011;54042;47.420;18.888;2022-07-04T04:28:21;4.57;;;2.97;;
67120;SDS011;54042;47.420;18.888;2022-07-04T04:30:49;2.92;;;2.65;;
67120;SDS011;54042;47.420;18.888;2022-07-04T04:33:16;5.45;;;2.60;;
67120;SDS011;54042;47.420;18.888;2022-07-04T04:35:43;5.03;;;2.95;;
67120;SDS011;54042;47.420;18.888;2022-07-04T04:38:10;3.70;;;2.75;;
67120;SDS011;54042;47.420;18.888;2022-07-04T04:40:36;2.95;;;2.60;;
67120;SDS011;54042;47.420;18.888;2022-07-04T04:43:03;3.70;;;2.70;;
67120;SDS011;54042;47.420;18.888;2022-07-04T04:45:30;3.58;;;2.63;;
67120;SDS011;54042;47.420;18.888;2022-07-04T04:47:57;3.88;;;2.80;;
67120;SDS011;54042;47.420;18.888;2022-07-04T04:50:24;5.80;;;2.95;;
67120;SDS011;54042;47.420;18.888;2022-07-04T04:52:50;6.40;;;2.78;;
67120;SDS011;54042;47.420;18.888;2022-07-04T04:55:17;6.25;;;3.20;;
67120;SDS011;54042;47.420;18.888;2022-07-04T04:57:44;5.00;;;2.80;;
67120;SDS011;54042;47.420;18.888;2022-07-04T05:00:11;3.58;;;2.78;;
67120;SDS011;54042;47.420;18.888;2022-07-04T05:02:38;6.28;;;2.80;;
67120;SDS011;54042;47.420;18.888;2022-07-04T05:05:05;8.15;;;3.10;;
67120;SDS011;54042;47.420;18.888;2022-07-04T05:07:32;4.38;;;2.85;;
67120;SDS011;54042;47.420;18.888;2022-07-04T05:10:00;7.78;;;2.90;;
67120;SDS011;54042;47.420;18.888;2022-07-04T05:12:29;4.25;;;2.63;;
67120;SDS011;54042;47.420;18.888;2022-07-04T05:14:59;5.28;;;2.70;;
67120;SDS011;54042;47.420;18.888;2022-07-04T05:17:26;7.22;;;2.70;;
67120;SDS011;54042;47.420;18.888;2022-07-04T05:19:53;3.15;;;2.42;;
67120;SDS011;54042;47.420;18.888;2022-07-04T05:22:22;6.72;;;2.60;;
67120;SDS011;54042;47.420;18.888;2022-07-04T05:24:48;4.32;;;2.80;;
67120;SDS011;54042;47.420;18.888;2022-07-04T05:27:15;6.93;;;2.38;;
67120;SDS011;54042;47.420;18.888;2022-07-04T05:29:42;3.22;;;2.22;;
67120;SDS011;54042;47.420;18.888;2022-07-04T05:32:08;4.53;;;2.33;;
67120;SDS011;54042;47.420;18.888;2022-07-04T05:34:35;3.40;;;2.30;;
67120;SDS011;54042;47.420;18.888;2022-07-04T05:37:03;6.22;;;2.70;;
67120;SDS011;54042;47.420;18.888;2022-07-04T05:39:30;8.15;;;2.72;;
67120;SDS011;54042;47.420;18.888;2022-07-04T05:41:57;5.85;;;2.72;;
67120;SDS011;54042;47.420;18.888;2022-07-04T05:44:26;8.35;;;2.70;;
67120;SDS011;54042;47.420;18.888;2022-07-04T05:47:11;4.82;;;3.03;;
67120;SDS011;54042;47.420;18.888;2022-07-04T05:49:44;3.40;;;3.03;;
67120;SDS011;54042;47.420;18.888;2022-07-04T05:52:15;6.45;;;2.70;;
67120;SDS011;54042;47.420;18.888;2022-07-04T05:54:42;7.85;;;3.30;;
67120;SDS011;54042;47.420;18.888;2022-07-04T05:57:12;3.70;;;2.75;;
67120;SDS011;54042;47.420;18.888;2022-07-04T05:59:39;3.58;;;2.85;;
67120;SDS011;54042;47.420;18.888;2022-07-04T06:02:06;3.78;;;3.08;;
67120;SDS011;54042;47.420;18.888;2022-07-04T06:04:36;5.57;;;3.15;;
67120;SDS011;54042;47.420;18.888;2022-07-04T06:07:02;4.18;;;3.10;;
67120;SDS011;54042;47.420;18.888;2022-07-04T06:09:29;6.63;;;2.70;;
67120;SDS011;54042;47.420;18.888;2022-07-04T06:11:56;3.58;;;2.80;;
67120;SDS011;54042;47.420;18.888;2022-07-04T06:14:23;6.70;;;2.92;;
67120;SDS011;54042;47.420;18.888;2022-07-04T06:16:50;7.82;;;3.38;;
67120;SDS011;54042;47.420;18.888;2022-07-04T06:19:17;8.40;;;2.92;;
67120;SDS011;54042;47.420;18.888;2022-07-04T06:21:44;6.22;;;2.70;;
67120;SDS011;54042;47.420;18.888;2022-07-04T06:24:12;4.60;;;2.72;;
67120;SDS011;54042;47.420;18.888;2022-07-04T06:26:39;6.53;;;2.67;;
67120;SDS011;54042;47.420;18.888;2022-07-04T06:29:05;4.15;;;2.60;;
67120;SDS011;54042;47.420;18.888;2022-07-04T06:31:32;4.78;;;2.63;;
67120;SDS011;54042;47.420;18.888;2022-07-04T06:33:59;3.42;;;2.33;;
67120;SDS011;54042;47.420;18.888;2022-07-04T06:36:47;4.03;;;2.35;;
67120;SDS011;54042;47.420;18.888;2022-07-04T06:39:13;3.83;;;2.33;;
67120;SDS011;54042;47.420;18.888;2022-07-04T06:41:40;3.85;;;2.42;;
67120;SDS011;54042;47.420;18.888;2022-07-04T06:44:07;5.60;;;2.53;;
67120;SDS011;54042;47.420;18.888;2022-07-04T06:46:41;9.88;;;2.55;;
67120;SDS011;54042;47.420;18.888;2022-07-04T06:49:10;4.47;;;2.88;;
67120;SDS011;54042;47.420;18.888;2022-07-04T06:51:37;6.20;;;2.22;;
67120;SDS011;54042;47.420;18.888;2022-07-04T06:54:04;4.90;;;2.30;;
67120;SDS011;54042;47.420;18.888;2022-07-04T06:56:31;3.13;;;2.40;;
67120;SDS011;54042;47.420;18.888;2022-07-04T06:58:58;3.63;;;2.58;;
67120;SDS011;54042;47.420;18.888;2022-07-04T07:01:25;5.40;;;2.45;;
67120;SDS011;54042;47.420;18.888;2022-07-04T07:03:53;2.55;;;2.35;;
67120;SDS011;54042;47.420;18.888;2022-07-04T07:06:20;4.05;;;2.03;;
67120;SDS011;54042;47.420;18.888;2022-07-04T07:08:49;6.28;;;2.30;;
67120;SDS011;54042;47.420;18.888;2022-07-04T07:11:16;5.32;;;2.40;;
67120;SDS011;54042;47.420;18.888;2022-07-04T07:13:46;5.35;;;2.20;;
67120;SDS011;54042;47.420;18.888;2022-07-04T07:16:13;4.40;;;2.30;;
67120;SDS011;54042;47.420;18.888;2022-07-04T07:18:43;3.03;;;2.20;;
67120;SDS011;54042;47.420;18.888;2022-07-04T07:21:10;3.53;;;2.17;;
67120;SDS011;54042;47.420;18.888;2022-07-04T07:23:40;10.77;;;2.33;;
67120;SDS011;54042;47.420;18.888;2022-07-04T07:26:08;6.45;;;2.30;;
67120;SDS011;54042;47.420;18.888;2022-07-04T07:28:36;5.00;;;2.17;;
67120;SDS011;54042;47.420;18.888;2022-07-04T07:31:03;2.47;;;1.83;;
67120;SDS011;54042;47.420;18.888;2022-07-04T07:33:32;6.35;;;1.90;;
67120;SDS011;54042;47.420;18.888;2022-07-04T07:35:59;6.22;;;2.30;;
67120;SDS011;54042;47.420;18.888;2022-07-04T07:38:27;6.63;;;1.95;;
67120;SDS011;54042;47.420;18.888;2022-07-04T07:40:59;3.25;;;1.77;;
67120;SDS011;54042;47.420;18.888;2022-07-04T07:43:26;7.90;;;2.00;;
67120;SDS011;54042;47.420;18.888;2022-07-04T07:45:53;4.55;;;2.10;;
67120;SDS011;54042;47.420;18.888;2022-07-04T07:48:20;3.03;;;1.73;;
67120;SDS011;54042;47.420;18.888;2022-07-04T07:50:49;4.45;;;1.77;;
67120;SDS011;54042;47.420;18.888;2022-07-04T07:53:18;2.13;;;1.63;;
67120;SDS011;54042;47.420;18.888;2022-07-04T07:55:45;5.03;;;1.70;;
67120;SDS011;54042;47.420;18.888;2022-07-04T07:58:12;3.03;;;1.80;;
67120;SDS011;54042;47.420;18.888;2022-07-04T08:00:39;4.45;;;1.88;;
67120;SDS011;54042;47.420;18.888;2022-07-04T08:03:24;4.88;;;1.63;;
67120;SDS011;54042;47.420;18.888;2022-07-04T08:06:10;3.08;;;1.70;;
67120;SDS011;54042;47.420;18.888;2022-07-04T08:08:38;5.32;;;1.60;;
67120;SDS011;54042;47.420;18.888;2022-07-04T08:11:06;2.80;;;1.45;;
67120;SDS011;54042;47.420;18.888;2022-07-04T08:13:33;4.75;;;1.48;;
67120;SDS011;54042;47.420;18.888;2022-07-04T08:16:00;1.80;;;1.50;;
67120;SDS011;54042;47.420;18.888;2022-07-04T08:18:27;3.83;;;1.70;;
67120;SDS011;54042;47.420;18.888;2022-07-04T08:20:55;9.15;;;1.70;;
67120;SDS011;54042;47.420;18.888;2022-07-04T08:23:31;2.13;;;1.40;;
67120;SDS011;54042;47.420;18.888;2022-07-04T08:26:02;1.60;;;1.20;;
67120;SDS011;54042;47.420;18.888;2022-07-04T08:28:29;4.38;;;1.30;;
67120;SDS011;54042;47.420;18.888;2022-07-04T08:30:56;2.92;;;1.20;;
67120;SDS011;54042;47.420;18.888;2022-07-04T08:33:24;3.42;;;1.45;;
67120;SDS011;54042;47.420;18.888;2022-07-04T08:35:52;3.10;;;1.20;;
67120;SDS011;54042;47.420;18.888;2022-07-04T08:38:24;4.75;;;1.23;;
67120;SDS011;54042;47.420;18.888;2022-07-04T08:40:54;3.08;;;1.35;;
67120;SDS011;54042;47.420;18.888;2022-07-04T08:43:23;5.15;;;1.50;;
67120;SDS011;54042;47.420;18.888;2022-07-04T08:45:53;2.20;;;1.35;;
67120;SDS011;54042;47.420;18.888;2022-07-04T08:48:41;7.32;;;1.30;;
67120;SDS011;54042;47.420;18.888;2022-07-04T08:51:15;6.15;;;1.55;;
67120;SDS011;54042;47.420;18.888;2022-07-04T08:53:49;1.27;;;1.10;;
67120;SDS011;54042;47.420;18.888;2022-07-04T08:56:22;1.30;;;1.20;;
67120;SDS011;54042;47.420;18.888;2022-07-04T08:59:09;1.15;;;1.05;;
67120;SDS011;54042;47.420;18.888;2022-07-04T09:01:36;3.88;;;1.10;;
67120;SDS011;54042;47.420;18.888;2022-07-04T09:04:06;1.73;;;1.20;;
67120;SDS011;54042;47.420;18.888;2022-07-04T09:06:34;2.10;;;1.50;;
67120;SDS011;54042;47.420;18.888;2022-07-04T09:09:02;3.33;;;1.10;;
67120;SDS011;54042;47.420;18.888;2022-07-04T09:11:29;4.72;;;1.17;;
67120;SDS011;54042;47.420;18.888;2022-07-04T09:13:56;4.18;;;1.50;;
67120;SDS011;54042;47.420;18.888;2022-07-04T09:16:24;5.13;;;1.50;;
67120;SDS011;54042;47.420;18.888;2022-07-04T09:18:51;1.58;;;1.25;;
67120;SDS011;54042;47.420;18.888;2022-07-04T09:21:20;1.25;;;1.20;;
67120;SDS011;54042;47.420;18.888;2022-07-04T09:23:49;2.47;;;1.30;;
67120;SDS011;54042;47.420;18.888;2022-07-04T09:28:51;4.03;;;1.40;;
67120;SDS011;54042;47.420;18.888;2022-07-04T09:31:23;2.58;;;1.33;;
67120;SDS011;54042;47.420;18.888;2022-07-04T09:33:52;3.65;;;1.52;;
67120;SDS011;54042;47.420;18.888;2022-07-04T09:36:33;1.50;;;1.30;;
67120;SDS011;54042;47.420;18.888;2022-07-04T09:39:17;2.28;;;1.40;;
67120;SDS011;54042;47.420;18.888;2022-07-04T09:41:51;3.88;;;1.30;;
67120;SDS011;54042;47.420;18.888;2022-07-04T09:45:06;1.30;;;1.20;;
67120;SDS011;54042;47.420;18.888;2022-07-04T09:47:21;2.30;;;1.23;;
67120;SDS011;54042;47.420;18.888;2022-07-04T09:52:28;5.63;;;1.42;;
67120;SDS011;54042;47.420;18.888;2022-07-04T09:54:58;5.78;;;1.60;;
67120;SDS011;54042;47.420;18.888;2022-07-04T09:57:32;5.63;;;1.60;;
67120;SDS011;54042;47.420;18.888;2022-07-04T10:02:53;1.40;;;1.20;;
67120;SDS011;54042;47.420;18.888;2022-07-04T10:05:24;3.53;;;1.60;;
67120;SDS011;54042;47.420;18.888;2022-07-04T10:07:54;1.55;;;1.45;;
67120;SDS011;54042;47.420;18.888;2022-07-04T10:10:23;2.10;;;1.35;;
67120;SDS011;54042;47.420;18.888;2022-07-04T10:13:05;3.20;;;1.50;;
67120;SDS011;54042;47.420;18.888;2022-07-04T10:15:34;4.65;;;1.60;;
67120;SDS011;54042;47.420;18.888;2022-07-04T10:18:08;1.58;;;1.40;;
67120;SDS011;54042;47.420;18.888;2022-07-04T10:20:36;1.95;;;1.40;;
67120;SDS011;54042;47.420;18.888;2022-07-04T10:23:03;2.35;;;1.70;;
67120;SDS011;54042;47.420;18.888;2022-07-04T10:25:33;1.85;;;1.60;;
67120;SDS011;54042;47.420;18.888;2022-07-04T10:28:00;5.97;;;1.40;;
67120;SDS011;54042;47.420;18.888;2022-07-04T10:30:31;1.67;;;1.38;;
67120;SDS011;54042;47.420;18.888;2022-07-04T10:33:43;2.45;;;1.30;;
67120;SDS011;54042;47.420;18.888;2022-07-04T10:36:23;3.65;;;1.38;;
67120;SDS011;54042;47.420;18.888;2022-07-04T10:39:23;3.22;;;1.30;;
67120;SDS011;54042;47.420;18.888;2022-07-04T10:41:56;2.63;;;1.33;;
67120;SDS011;54042;47.420;18.888;2022-07-04T10:44:25;4.15;;;1.50;;
67120;SDS011;54042;47.420;18.888;2022-07-04T10:47:03;2.50;;;1.20;;
67120;SDS011;54042;47.420;18.888;2022-07-04T10:49:36;2.58;;;1.00;;
67120;SDS011;54042;47.420;18.888;2022-07-04T10:52:15;2.40;;;1.10;;
67120;SDS011;54042;47.420;18.888;2022-07-04T10:54:42;3.75;;;1.05;;
67120;SDS011;54042;47.420;18.888;2022-07-04T10:57:20;3.05;;;1.10;;
67120;SDS011;54042;47.420;18.888;2022-07-04T11:02:30;1.90;;;1.10;;
67120;SDS011;54042;47.420;18.888;2022-07-04T11:04:59;1.92;;;1.30;;
67120;SDS011;54042;47.420;18.888;2022-07-04T11:17:51;2.45;;;1.20;;
67120;SDS011;54042;47.420;18.888;2022-07-04T11:20:20;3.20;;;1.10;;
67120;SDS011;54042;47.420;18.888;2022-07-04T11:22:50;4.15;;;1.20;;
67120;SDS011;54042;47.420;18.888;2022-07-04T11:25:18;4.60;;;1.20;;
67120;SDS011;54042;47.420;18.888;2022-07-04T11:27:45;2.03;;;1.20;;
67120;SDS011;54042;47.420;18.888;2022-07-04T11:30:14;5.13;;;0.90;;
67120;SDS011;54042;47.420;18.888;2022-07-04T11:32:41;3.58;;;1.25;;
67120;SDS011;54042;47.420;18.888;2022-07-04T11:35:08;3.03;;;1.00;;
67120;SDS011;54042;47.420;18.888;2022-07-04T11:37:35;6.07;;;1.23;;
67120;SDS011;54042;47.420;18.888;2022-07-04T11:40:05;1.13;;;1.00;;
67120;SDS011;54042;47.420;18.888;2022-07-04T11:43:06;2.17;;;1.10;;
67120;SDS011;54042;47.420;18.888;2022-07-04T11:45:53;1.15;;;1.05;;
67120;SDS011;54042;47.420;18.888;2022-07-04T11:48:41;0.98;;;0.90;;
67120;SDS011;54042;47.420;18.888;2022-07-04T11:51:49;10.57;;;1.20;;
67120;SDS011;54042;47.420;18.888;2022-07-04T11:54:16;7.47;;;1.20;;
67120;SDS011;54042;47.420;18.888;2022-07-04T11:57:11;1.65;;;0.95;;
67120;SDS011;54042;47.420;18.888;2022-07-04T11:59:52;3.28;;;1.08;;
67120;SDS011;54042;47.420;18.888;2022-07-04T12:02:20;5.05;;;1.27;;
67120;SDS011;54042;47.420;18.888;2022-07-04T12:04:47;1.27;;;1.10;;
67120;SDS011;54042;47.420;18.888;2022-07-04T12:07:15;5.28;;;1.42;;
67120;SDS011;54042;47.420;18.888;2022-07-04T12:09:43;2.92;;;1.15;;
67120;SDS011;54042;47.420;18.888;2022-07-04T12:12:12;3.05;;;0.98;;
67120;SDS011;54042;47.420;18.888;2022-07-04T12:14:58;0.98;;;0.98;;
67120;SDS011;54042;47.420;18.888;2022-07-04T12:17:50;2.05;;;1.00;;
67120;SDS011;54042;47.420;18.888;2022-07-04T12:20:22;3.78;;;1.30;;
67120;SDS011;54042;47.420;18.888;2022-07-04T12:22:51;2.08;;;1.02;;
67120;SDS011;54042;47.420;18.888;2022-07-04T12:25:29;1.95;;;1.00;;
67120;SDS011;54042;47.420;18.888;2022-07-04T12:28:08;2.70;;;1.20;;
67120;SDS011;54042;47.420;18.888;2022-07-04T12:30:48;5.63;;;1.20;;
67120;SDS011;54042;47.420;18.888;2022-07-04T12:33:23;7.03;;;1.40;;
67120;SDS011;54042;47.420;18.888;2022-07-04T12:35:57;2.20;;;1.27;;
67120;SDS011;54042;47.420;18.888;2022-07-04T12:41:02;1.38;;;1.27;;
67120;SDS011;54042;47.420;18.888;2022-07-04T12:43:45;3.95;;;1.08;;
67120;SDS011;54042;47.420;18.888;2022-07-04T12:46:29;2.08;;;1.17;;
67120;SDS011;54042;47.420;18.888;2022-07-04T12:49:01;5.25;;;1.30;;
67120;SDS011;54042;47.420;18.888;2022-07-04T12:51:30;1.20;;;1.10;;
67120;SDS011;54042;47.420;18.888;2022-07-04T12:54:06;2.40;;;1.00;;
67120;SDS011;54042;47.420;18.888;2022-07-04T12:56:38;3.00;;;1.00;;
67120;SDS011;54042;47.420;18.888;2022-07-04T12:59:16;3.13;;;1.30;;
67120;SDS011;54042;47.420;18.888;2022-07-04T13:01:46;5.47;;;1.30;;
67120;SDS011;54042;47.420;18.888;2022-07-04T13:04:14;1.88;;;1.33;;
67120;SDS011;54042;47.420;18.888;2022-07-04T13:06:46;2.08;;;1.20;;
67120;SDS011;54042;47.420;18.888;2022-07-04T13:09:16;1.25;;;1.00;;
67120;SDS011;54042;47.420;18.888;2022-07-04T13:11:56;7.43;;;1.30;;
67120;SDS011;54042;47.420;18.888;2022-07-04T13:14:48;4.55;;;1.20;;
67120;SDS011;54042;47.420;18.888;2022-07-04T13:17:20;6.15;;;1.15;;
67120;SDS011;54042;47.420;18.888;2022-07-04T13:19:50;2.45;;;0.90;;
67120;SDS011;54042;47.420;18.888;2022-07-04T13:22:23;3.93;;;1.30;;
67120;SDS011;54042;47.420;18.888;2022-07-04T13:24:51;4.50;;;0.98;;
67120;SDS011;54042;47.420;18.888;2022-07-04T13:27:21;1.80;;;0.98;;
67120;SDS011;54042;47.420;18.888;2022-07-04T13:29:51;3.72;;;1.00;;
67120;SDS011;54042;47.420;18.888;2022-07-04T13:32:18;7.13;;;1.08;;
67120;SDS011;54042;47.420;18.888;2022-07-04T13:34:59;3.05;;;1.00;;
67120;SDS011;54042;47.420;18.888;2022-07-04T13:37:26;1.00;;;0.90;;
67120;SDS011;54042;47.420;18.888;2022-07-04T13:39:57;1.83;;;0.90;;
67120;SDS011;54042;47.420;18.888;2022-07-04T13:42:26;2.92;;;0.90;;
67120;SDS011;54042;47.420;18.888;2022-07-04T13:45:13;1.23;;;0.85;;
67120;SDS011;54042;47.420;18.888;2022-07-04T13:47:51;1.20;;;0.88;;
67120;SDS011;54042;47.420;18.888;2022-07-04T13:50:29;2.17;;;1.10;;
67120;SDS011;54042;47.420;18.888;2022-07-04T13:52:56;3.13;;;1.02;;
67120;SDS011;54042;47.420;18.888;2022-07-04T13:55:23;1.60;;;1.10;;
67120;SDS011;54042;47.420;18.888;2022-07-04T13:58:00;5.95;;;0.90;;
67120;SDS011;54042;47.420;18.888;2022-07-04T14:00:51;0.80;;;0.80;;
67120;SDS011;54042;47.420;18.888;2022-07-04T14:03:18;4.10;;;0.90;;
67120;SDS011;54042;47.420;18.888;2022-07-04T14:05:48;9.20;;;1.15;;
67120;SDS011;54042;47.420;18.888;2022-07-04T14:08:17;2.13;;;1.00;;
67120;SDS011;54042;47.420;18.888;2022-07-04T14:10:44;1.70;;;1.02;;
67120;SDS011;54042;47.420;18.888;2022-07-04T14:13:12;4.45;;;1.00;;
67120;SDS011;54042;47.420;18.888;2022-07-04T14:15:40;2.83;;;1.23;;
67120;SDS011;54042;47.420;18.888;2022-07-04T14:18:07;2.22;;;1.00;;
67120;SDS011;54042;47.420;18.888;2022-07-04T14:20:42;2.90;;;1.25;;
67120;SDS011;54042;47.420;18.888;2022-07-04T14:23:20;7.70;;;1.52;;
67120;SDS011;54042;47.420;18.888;2022-07-04T14:26:11;2.70;;;1.10;;
67120;SDS011;54042;47.420;18.888;2022-07-04T14:28:41;2.05;;;1.13;;
67120;SDS011;54042;47.420;18.888;2022-07-04T14:31:13;2.35;;;1.30;;
67120;SDS011;54042;47.420;18.888;2022-07-04T14:33:40;1.73;;;1.17;;
67120;SDS011;54042;47.420;18.888;2022-07-04T14:36:08;7.57;;;1.20;;
67120;SDS011;54042;47.420;18.888;2022-07-04T14:38:38;8.15;;;1.33;;
67120;SDS011;54042;47.420;18.888;2022-07-04T14:41:08;4.47;;;1.00;;
67120;SDS011;54042;47.420;18.888;2022-07-04T14:43:53;2.03;;;1.08;;
67120;SDS011;54042;47.420;18.888;2022-07-04T14:46:25;1.88;;;0.95;;
67120;SDS011;54042;47.420;18.888;2022-07-04T14:49:00;2.72;;;1.10;;
67120;SDS011;54042;47.420;18.888;2022-07-04T14:51:27;2.35;;;1.05;;
67120;SDS011;54042;47.420;18.888;2022-07-04T14:53:54;1.10;;;1.00;;
67120;SDS011;54042;47.420;18.888;2022-07-04T14:56:22;2.33;;;0.90;;
67120;SDS011;54042;47.420;18.888;2022-07-04T14:58:53;5.90;;;1.00;;
67120;SDS011;54042;47.420;18.888;2022-07-04T15:01:31;0.90;;;0.82;;
67120;SDS011;54042;47.420;18.888;2022-07-04T15:04:12;2.47;;;0.90;;
67120;SDS011;54042;47.420;18.888;2022-07-04T15:06:39;1.27;;;0.90;;
67120;SDS011;54042;47.420;18.888;2022-07-04T15:09:17;4.03;;;1.42;;
67120;SDS011;54042;47.420;18.888;2022-07-04T15:11:44;3.40;;;1.10;;
67120;SDS011;54042;47.420;18.888;2022-07-04T15:14:38;2.80;;;1.00;;